createdAt,value
2023-04-18T00:00:31.125Z,102054.28
2023-04-18T00:03:00.205Z,102056.34
2023-04-18T00:05:28.312Z,102061.91
2023-04-18T00:07:55.074Z,102061.72
2023-04-18T00:10:21.940Z,102049.44
2023-04-18T00:12:49.191Z,102051.84
2023-04-18T00:15:16.113Z,102049.78
2023-04-18T00:17:43.725Z,102053.47
2023-04-18T00:20:11.389Z,102046.41
2023-04-18T00:22:43.034Z,102045.75
2023-04-18T00:25:10.611Z,102046.09
2023-04-18T00:27:38.689Z,102047.16
2023-04-18T00:30:09.084Z,102044.06
2023-04-18T00:32:36.049Z,102043.59
2023-04-18T00:35:02.802Z,102044.59
2023-04-18T00:37:29.908Z,102044.25
2023-04-18T00:39:56.623Z,102046.81
2023-04-18T00:42:24.572Z,102033.34
2023-04-18T00:44:51.318Z,102029.69
2023-04-18T00:47:18.035Z,102037.31
2023-04-18T00:49:45.632Z,102030.16
2023-04-18T00:52:12.760Z,102035.06
2023-04-18T00:54:40.477Z,102019.66
2023-04-18T00:57:08.127Z,102028.56
2023-04-18T00:59:35.763Z,102030.72
2023-04-18T01:02:04.101Z,102024.75
2023-04-18T01:04:34.038Z,102021.59
2023-04-18T01:07:02.377Z,102019.59
2023-04-18T01:09:29.360Z,102016.88
2023-04-18T01:11:56.052Z,102018.19
2023-04-18T01:14:22.798Z,102028.09
2023-04-18T01:16:49.641Z,102023.06
2023-04-18T01:19:19.678Z,102023.69
2023-04-18T01:21:46.383Z,102028.41
2023-04-18T01:24:15.537Z,102024.03
2023-04-18T01:26:44.248Z,102025.75
2023-04-18T01:29:11.596Z,102015.63
2023-04-18T01:31:39.447Z,102012.47
2023-04-18T01:34:06.576Z,102010.78
2023-04-18T01:36:33.507Z,102013.59
2023-04-18T01:39:00.269Z,102009.34
2023-04-18T01:41:29.776Z,102009.91
2023-04-18T01:43:56.463Z,102009.13
2023-04-18T01:46:23.231Z,102004.19
2023-04-18T01:48:49.981Z,101995.53
2023-04-18T01:51:16.668Z,101997.78
2023-04-18T01:53:43.406Z,102008.38
2023-04-18T01:56:10.457Z,102003.31
2023-04-18T01:58:37.629Z,102007.03
2023-04-18T02:01:04.728Z,102005.03
2023-04-18T02:03:31.641Z,102001.53
2023-04-18T02:05:58.593Z,101999.47
2023-04-18T02:08:25.358Z,101990.66
2023-04-18T02:10:52.085Z,101989.91
2023-04-18T02:13:18.814Z,101991.03
2023-04-18T02:15:48.995Z,101989.31
2023-04-18T02:18:17.556Z,101986.69
2023-04-18T02:20:45.364Z,101990.22
2023-04-18T02:23:12.030Z,101987.75
2023-04-18T02:25:38.706Z,101988.72
2023-04-18T02:28:05.507Z,101989.41
2023-04-18T02:30:32.215Z,101987.56
2023-04-18T02:32:58.971Z,101991.75
2023-04-18T02:35:26.869Z,101989.59
2023-04-18T02:37:53.635Z,101982.78
2023-04-18T02:40:20.507Z,101988.22
2023-04-18T02:42:47.353Z,101989.16
2023-04-18T02:45:14.209Z,101984.06
2023-04-18T02:47:53.693Z,101982.94
2023-04-18T02:50:22.769Z,101988.41
2023-04-18T02:52:49.502Z,101995.44
2023-04-18T02:55:16.380Z,101982.22
2023-04-18T02:57:43.287Z,101985.91
2023-04-18T03:00:10.588Z,101982.44
2023-04-18T03:02:37.380Z,101976.28
2023-04-18T03:05:04.336Z,101976.84
2023-04-18T03:07:31.170Z,101981.72
2023-04-18T03:09:58.013Z,101985.25
2023-04-18T03:12:24.960Z,101990.75
2023-04-18T03:14:51.632Z,101984.38
2023-04-18T03:17:18.748Z,101983.72
2023-04-18T03:19:46.576Z,101983.75
2023-04-18T03:22:14.271Z,101990.38
2023-04-18T03:24:41.084Z,101988.16
2023-04-18T03:27:07.782Z,101998.69
2023-04-18T03:29:34.484Z,101986.81
2023-04-18T03:32:01.235Z,101995.53
2023-04-18T03:34:27.921Z,102000.34
2023-04-18T03:36:54.596Z,101993.50
2023-04-18T03:39:21.309Z,101998.78
2023-04-18T03:41:48.025Z,101996.34
2023-04-18T03:44:14.983Z,101992.22
2023-04-18T03:46:42.122Z,101994.31
2023-04-18T03:49:08.822Z,102002.19
2023-04-18T03:51:42.844Z,101994.84
2023-04-18T03:54:09.577Z,101999.84
2023-04-18T03:56:36.349Z,102005.03
2023-04-18T03:59:03.012Z,102001.22
2023-04-18T04:01:29.983Z,102002.91
2023-04-18T04:03:56.827Z,102005.97
2023-04-18T04:06:23.671Z,102012.84
2023-04-18T04:08:50.455Z,102015.50
2023-04-18T04:11:17.752Z,102010.66
2023-04-18T04:13:44.578Z,102008.00
2023-04-18T04:16:11.531Z,102020.16
2023-04-18T04:18:38.194Z,102008.72
2023-04-18T04:21:05.560Z,102012.19
2023-04-18T04:23:33.321Z,102016.31
2023-04-18T04:26:04.267Z,102019.91
2023-04-18T04:28:31.762Z,102023.97
2023-04-18T04:30:58.486Z,102019.38
2023-04-18T04:33:25.938Z,102021.75
2023-04-18T04:35:52.978Z,102024.91
2023-04-18T04:38:20.304Z,102023.88
2023-04-18T04:40:46.960Z,102025.88
2023-04-18T04:43:15.704Z,102025.69
2023-04-18T04:45:43.744Z,102023.28
2023-04-18T04:48:11.314Z,102034.66
2023-04-18T04:50:40.547Z,102031.44
2023-04-18T04:53:07.611Z,102038.16
2023-04-18T04:55:34.664Z,102025.88
2023-04-18T04:58:01.324Z,102026.72
2023-04-18T05:00:29.027Z,102029.69
2023-04-18T05:02:57.540Z,102030.22
2023-04-18T05:05:24.552Z,102033.38
2023-04-18T05:07:54.668Z,102032.91
2023-04-18T05:10:21.903Z,102025.44
2023-04-18T05:12:48.602Z,102033.16
2023-04-18T05:15:16.479Z,102036.59
2023-04-18T05:17:43.200Z,102039.06
2023-04-18T05:20:10.588Z,102035.41
2023-04-18T05:22:37.397Z,102044.34
2023-04-18T05:25:04.378Z,102045.94
2023-04-18T05:27:31.065Z,102040.44
2023-04-18T05:29:57.744Z,102038.06
2023-04-18T05:32:24.454Z,102040.75
2023-04-18T05:34:51.610Z,102041.13
2023-04-18T05:37:18.444Z,102047.13
2023-04-18T05:39:45.099Z,102049.66
2023-04-18T05:42:11.770Z,102059.75
2023-04-18T05:44:38.683Z,102066.78
2023-04-18T05:47:08.321Z,102068.59
2023-04-18T05:49:35.090Z,102067.50
2023-04-18T05:52:01.941Z,102056.81
2023-04-18T05:54:28.800Z,102061.81
2023-04-18T05:56:55.541Z,102064.59
2023-04-18T05:59:22.301Z,102067.78
2023-04-18T06:01:52.351Z,102072.19
2023-04-18T06:04:20.564Z,102072.34
2023-04-18T06:06:49.181Z,102079.16
2023-04-18T06:09:15.852Z,102071.25
2023-04-18T06:11:42.556Z,102075.78
2023-04-18T06:14:09.308Z,102078.34
2023-04-18T06:16:37.470Z,102082.63
2023-04-18T06:19:05.365Z,102088.69
2023-04-18T06:21:32.226Z,102094.69
2023-04-18T06:23:59.128Z,102097.97
2023-04-18T06:26:25.851Z,102089.22
2023-04-18T06:28:52.614Z,102096.66
2023-04-18T06:31:19.411Z,102094.69
2023-04-18T06:33:46.229Z,102088.97
2023-04-18T06:36:13.124Z,102103.75
2023-04-18T06:38:39.791Z,102102.31
2023-04-18T06:41:06.526Z,102102.84
2023-04-18T06:43:33.349Z,102106.03
2023-04-18T06:46:00.061Z,102103.28
2023-04-18T06:48:26.885Z,102104.69
2023-04-18T06:50:54.747Z,102106.72
2023-04-18T06:53:21.721Z,102109.34
2023-04-18T06:55:48.554Z,102124.31
2023-04-18T06:58:21.208Z,102117.06
2023-04-18T07:00:52.051Z,102115.25
2023-04-18T07:03:18.995Z,102109.81
2023-04-18T07:05:45.817Z,102117.69
2023-04-18T07:08:12.540Z,102129.06
2023-04-18T07:10:39.273Z,102131.03
2023-04-18T07:13:06.383Z,102131.63
2023-04-18T07:15:35.972Z,102128.28
2023-04-18T07:18:02.723Z,102138.19
2023-04-18T07:20:29.560Z,102140.88
2023-04-18T07:22:56.319Z,102144.06
2023-04-18T07:25:23.179Z,102149.88
2023-04-18T07:27:50.386Z,102154.16
2023-04-18T07:30:17.107Z,102151.66
2023-04-18T07:32:43.895Z,102151.59
2023-04-18T07:35:11.110Z,102156.00
2023-04-18T07:37:44.366Z,102149.00
2023-04-18T07:40:11.706Z,102155.91
2023-04-18T07:42:38.429Z,102161.91
2023-04-18T07:45:05.703Z,102158.81
2023-04-18T07:47:33.450Z,102156.69
2023-04-18T07:50:00.852Z,102165.34
2023-04-18T07:52:33.599Z,102156.06
2023-04-18T07:55:00.325Z,102149.75
2023-04-18T07:57:27.176Z,102155.19
2023-04-18T07:59:59.900Z,102155.63
2023-04-18T08:02:26.747Z,102155.50
2023-04-18T08:04:56.474Z,102168.78
2023-04-18T08:07:25.967Z,102164.97
2023-04-18T08:09:57.804Z,102175.03
2023-04-18T08:12:24.513Z,102177.81
2023-04-18T08:14:51.354Z,102176.81
2023-04-18T08:17:18.110Z,102176.13
2023-04-18T08:19:45.889Z,102177.00
2023-04-18T08:22:12.568Z,102177.06
2023-04-18T08:24:39.572Z,102182.97
2023-04-18T08:27:06.432Z,102173.56
2023-04-18T08:29:33.765Z,102178.34
2023-04-18T08:32:00.734Z,102181.16
2023-04-18T08:34:29.017Z,102175.28
2023-04-18T08:36:55.762Z,102178.13
2023-04-18T08:39:23.674Z,102189.59
2023-04-18T08:41:59.753Z,102181.47
2023-04-18T08:44:29.817Z,102189.03
2023-04-18T08:46:57.742Z,102178.13
2023-04-18T08:49:25.131Z,102176.88
2023-04-18T08:51:52.758Z,102172.63
2023-04-18T08:54:21.088Z,102176.25
2023-04-18T08:56:48.050Z,102182.81
2023-04-18T08:59:15.046Z,102177.44
2023-04-18T09:01:59.559Z,102183.09
2023-04-18T09:04:46.103Z,102175.59
2023-04-18T09:07:14.995Z,102179.59
2023-04-18T09:09:51.733Z,102178.22
2023-04-18T09:12:23.401Z,102177.22
2023-04-18T09:14:57.639Z,102182.63
2023-04-18T09:17:38.493Z,102185.75
2023-04-18T09:20:06.527Z,102187.00
2023-04-18T09:22:48.131Z,102187.41
2023-04-18T09:25:30.712Z,102193.50
2023-04-18T09:28:02.170Z,102189.16
2023-04-18T09:30:35.348Z,102196.16
2023-04-18T09:33:05.322Z,102182.53
2023-04-18T09:35:32.121Z,102191.31
2023-04-18T09:37:58.947Z,102176.97
2023-04-18T09:40:26.542Z,102183.78
2023-04-18T09:42:56.672Z,102178.81
2023-04-18T09:45:24.222Z,102180.59
2023-04-18T09:47:52.365Z,102177.09
2023-04-18T09:50:20.953Z,102169.38
2023-04-18T09:52:48.601Z,102173.50
2023-04-18T09:55:17.562Z,102169.59
2023-04-18T09:57:48.621Z,102175.47
2023-04-18T10:00:17.998Z,102170.56
2023-04-18T10:02:48.807Z,102170.47
2023-04-18T10:05:18.253Z,102168.59
2023-04-18T10:07:49.308Z,102165.81
2023-04-18T10:10:16.375Z,102173.69
2023-04-18T10:12:44.020Z,102165.63
2023-04-18T10:15:11.756Z,102168.03
2023-04-18T10:18:12.680Z,102171.38
2023-04-18T10:20:40.896Z,102167.81
2023-04-18T10:23:32.582Z,102161.31
2023-04-18T10:25:59.560Z,102163.53
2023-04-18T10:28:27.877Z,102157.91
2023-04-18T10:31:05.175Z,102152.81
2023-04-18T10:33:35.901Z,102160.97
2023-04-18T10:36:08.905Z,102162.72
2023-04-18T10:38:38.989Z,102151.81
2023-04-18T10:41:15.179Z,102160.56
2023-04-18T10:44:08.491Z,102160.03
2023-04-18T10:46:42.193Z,102157.72
2023-04-18T10:49:26.200Z,102153.13
2023-04-18T10:52:01.118Z,102153.88
2023-04-18T10:55:06.480Z,102148.88
2023-04-18T10:57:44.202Z,102143.97
2023-04-18T11:00:13.145Z,102146.44
2023-04-18T11:02:41.616Z,102140.28
2023-04-18T11:05:09.063Z,102152.13
2023-04-18T11:07:41.740Z,102143.97
2023-04-18T11:10:09.915Z,102149.97
2023-04-18T11:12:43.905Z,102139.81
2023-04-18T11:15:12.768Z,102142.97
2023-04-18T11:17:40.371Z,102152.69
2023-04-18T11:20:13.013Z,102142.09
2023-04-18T11:22:58.184Z,102137.59
2023-04-18T11:25:30.537Z,102133.22
2023-04-18T11:28:02.164Z,102123.94
2023-04-18T11:30:39.520Z,102130.91
2023-04-18T11:33:08.553Z,102136.97
2023-04-18T11:35:43.153Z,102134.47
2023-04-18T11:38:12.522Z,102126.47
2023-04-18T11:41:02.881Z,102130.91
2023-04-18T11:43:33.191Z,102130.78
2023-04-18T11:46:00.296Z,102128.88
2023-04-18T11:48:37.665Z,102127.81
2023-04-18T11:51:06.587Z,102130.19
2023-04-18T11:53:37.520Z,102124.84
2023-04-18T11:56:05.716Z,102120.38
2023-04-18T11:58:36.712Z,102130.88
2023-04-18T12:01:25.752Z,102124.97
2023-04-18T12:04:08.441Z,102124.34
2023-04-18T12:06:51.910Z,102127.72
2023-04-18T12:09:19.666Z,102123.19
2023-04-18T12:12:03.922Z,102133.19
2023-04-18T12:14:30.752Z,102127.78
2023-04-18T12:16:57.534Z,102126.22
2023-04-18T12:19:28.424Z,102128.06
2023-04-18T12:22:18.184Z,102118.59
2023-04-18T12:24:45.017Z,102121.25
2023-04-18T12:27:12.347Z,102123.22
2023-04-18T12:29:39.798Z,102120.72
2023-04-18T12:32:06.497Z,102126.34
2023-04-18T12:34:33.287Z,102121.66
2023-04-18T12:37:00.472Z,102126.84
2023-04-18T12:39:27.256Z,102114.75
2023-04-18T12:41:53.918Z,102120.75
2023-04-18T12:44:21.110Z,102123.09
2023-04-18T12:46:47.809Z,102113.53
2023-04-18T12:49:14.836Z,102113.84
2023-04-18T12:51:41.656Z,102107.88
2023-04-18T12:54:08.400Z,102109.25
2023-04-18T12:56:35.358Z,102103.06
2023-04-18T12:59:02.213Z,102100.25
2023-04-18T13:01:28.945Z,102103.94
2023-04-18T13:04:08.467Z,102101.91
2023-04-18T13:06:38.409Z,102107.09
2023-04-18T13:09:05.227Z,102104.66
2023-04-18T13:11:31.891Z,102102.19
2023-04-18T13:13:59.558Z,102110.00
2023-04-18T13:16:26.279Z,102103.31
2023-04-18T13:18:52.950Z,102103.13
2023-04-18T13:21:19.759Z,102097.50
2023-04-18T13:23:46.395Z,102096.63
2023-04-18T13:26:13.132Z,102090.16
2023-04-18T13:28:39.837Z,102098.16
2023-04-18T13:31:06.938Z,102107.47
2023-04-18T13:33:33.567Z,102106.06
2023-04-18T13:36:00.282Z,102106.81
2023-04-18T13:38:28.038Z,102096.91
2023-04-18T13:41:08.409Z,102089.19
2023-04-18T13:43:37.936Z,102096.25
2023-04-18T13:46:05.240Z,102095.94
2023-04-18T13:48:32.047Z,102092.94
2023-04-18T13:50:58.813Z,102089.72
2023-04-18T13:53:25.639Z,102090.00
2023-04-18T13:55:52.724Z,102090.97
2023-04-18T13:58:19.444Z,102082.53
2023-04-18T14:00:46.112Z,102094.69
2023-04-18T14:03:13.078Z,102089.16
2023-04-18T14:05:40.005Z,102088.06
2023-04-18T14:08:06.729Z,102078.81
2023-04-18T14:10:33.750Z,102084.19
2023-04-18T14:13:01.039Z,102084.66
2023-04-18T14:15:28.002Z,102089.50
2023-04-18T14:17:54.813Z,102091.34
2023-04-18T14:20:21.618Z,102086.22
2023-04-18T14:22:53.152Z,102089.69
2023-04-18T14:25:20.180Z,102082.16
2023-04-18T14:27:47.757Z,102090.28
2023-04-18T14:30:14.954Z,102088.22
2023-04-18T14:32:41.772Z,102090.91
2023-04-18T14:35:09.470Z,102087.34
2023-04-18T14:37:36.234Z,102094.09
2023-04-18T14:40:02.924Z,102091.59
2023-04-18T14:42:29.687Z,102086.63
2023-04-18T14:44:56.413Z,102084.28
2023-04-18T14:47:24.383Z,102079.97
2023-04-18T14:49:51.440Z,102075.66
2023-04-18T14:52:18.122Z,102073.41
2023-04-18T14:54:44.864Z,102066.19
2023-04-18T14:57:13.077Z,102074.38
2023-04-18T14:59:39.769Z,102063.34
2023-04-18T15:02:06.693Z,102062.44
2023-04-18T15:04:33.617Z,102058.19
2023-04-18T15:07:00.508Z,102064.75
2023-04-18T15:09:27.308Z,102056.44
2023-04-18T15:11:54.642Z,102061.38
2023-04-18T15:14:21.343Z,102063.91
2023-04-18T15:16:51.267Z,102065.81
2023-04-18T15:19:20.453Z,102067.06
2023-04-18T15:21:52.494Z,102070.13
2023-04-18T15:24:19.189Z,102075.47
2023-04-18T15:26:48.383Z,102069.25
2023-04-18T15:29:15.293Z,102065.22
2023-04-18T15:31:42.092Z,102065.22
2023-04-18T15:34:10.387Z,102058.09
2023-04-18T15:36:37.208Z,102058.34
2023-04-18T15:39:05.893Z,102053.75
2023-04-18T15:41:36.906Z,102057.69
2023-04-18T15:44:06.617Z,102058.84
2023-04-18T15:46:34.993Z,102049.84
2023-04-18T15:49:01.870Z,102057.19
2023-04-18T15:51:28.656Z,102047.69
2023-04-18T15:53:55.398Z,102054.66
2023-04-18T15:56:23.439Z,102044.84
2023-04-18T15:58:50.281Z,102054.06
2023-04-18T16:01:17.030Z,102048.53
2023-04-18T16:03:44.246Z,102048.56
2023-04-18T16:06:11.561Z,102049.19
2023-04-18T16:11:31.751Z,102047.75
2023-04-18T16:13:58.529Z,102052.63
2023-04-18T16:16:25.387Z,102043.63
2023-04-18T16:19:03.810Z,102038.03
2023-04-18T16:21:30.573Z,102047.53
2023-04-18T16:23:57.273Z,102048.06
2023-04-18T16:26:25.053Z,102028.75
2023-04-18T16:28:51.874Z,102035.66
2023-04-18T16:31:18.725Z,102027.72
2023-04-18T16:33:45.698Z,102027.06
2023-04-18T16:36:12.481Z,102037.31
2023-04-18T16:38:39.290Z,102030.78
2023-04-18T16:41:06.116Z,102031.91
2023-04-18T16:43:36.609Z,102043.88
2023-04-18T16:46:03.765Z,102047.81
2023-04-18T16:48:30.869Z,102041.22
2023-04-18T16:50:58.183Z,102034.81
2023-04-18T16:53:25.235Z,102038.91
2023-04-18T16:55:55.057Z,102044.78
2023-04-18T16:58:23.419Z,102050.41
2023-04-18T17:00:50.126Z,102044.75
2023-04-18T17:03:17.280Z,102046.00
2023-04-18T17:05:44.826Z,102036.31
2023-04-18T17:08:11.755Z,102038.44
2023-04-18T17:10:38.920Z,102036.16
2023-04-18T17:13:06.137Z,102034.16
2023-04-18T17:15:32.849Z,102039.50
2023-04-18T17:18:01.402Z,102043.72
2023-04-18T17:20:28.606Z,102036.22
2023-04-18T17:22:55.674Z,102041.56
2023-04-18T17:25:22.375Z,102045.06
2023-04-18T17:27:49.117Z,102047.59
2023-04-18T17:30:15.973Z,102039.88
2023-04-18T17:32:46.123Z,102044.06
2023-04-18T17:35:14.776Z,102043.28
2023-04-18T17:37:42.640Z,102047.38
2023-04-18T17:40:11.649Z,102049.88
2023-04-18T17:42:38.646Z,102052.41
2023-04-18T17:45:07.759Z,102050.75
2023-04-18T17:47:35.359Z,102048.47
2023-04-18T17:50:03.812Z,102047.19
2023-04-18T17:52:30.769Z,102053.28
2023-04-18T17:54:58.684Z,102057.09
2023-04-18T17:57:26.766Z,102050.97
2023-04-18T17:59:53.744Z,102053.13
2023-04-18T18:02:20.849Z,102058.72
2023-04-18T18:04:47.769Z,102067.06
2023-04-18T18:07:14.548Z,102063.38
2023-04-18T18:09:45.629Z,102067.72
2023-04-18T18:12:12.602Z,102067.47
2023-04-18T18:14:40.762Z,102068.41
2023-04-18T18:17:07.606Z,102072.00
2023-04-18T18:19:37.508Z,102069.59
2023-04-18T18:22:04.295Z,102072.34
2023-04-18T18:24:31.131Z,102070.72
2023-04-18T18:26:58.304Z,102075.31
2023-04-18T18:29:25.308Z,102074.50
2023-04-18T18:31:52.104Z,102083.91
2023-04-18T18:34:20.124Z,102083.53
2023-04-18T18:36:47.490Z,102084.56
2023-04-18T18:39:16.603Z,102089.56
2023-04-18T18:41:43.704Z,102089.91
2023-04-18T18:44:11.756Z,102086.06
2023-04-18T18:46:38.552Z,102093.97
2023-04-18T18:49:05.434Z,102095.34
2023-04-18T18:51:32.855Z,102098.09
2023-04-18T18:53:59.669Z,102101.91
2023-04-18T18:56:26.602Z,102107.19
2023-04-18T18:58:55.695Z,102109.16
2023-04-18T19:01:23.198Z,102103.59
2023-04-18T19:03:50.264Z,102107.19
2023-04-18T19:06:17.121Z,102112.59
2023-04-18T19:08:43.845Z,102119.19
2023-04-18T19:11:12.891Z,102115.34
2023-04-18T19:13:39.853Z,102125.16
2023-04-18T19:16:06.596Z,102120.13
2023-04-18T19:18:33.612Z,102126.00
2023-04-18T19:21:00.363Z,102128.50
2023-04-18T19:23:27.997Z,102127.50
2023-04-18T19:25:55.030Z,102135.91
2023-04-18T19:28:23.092Z,102130.81
2023-04-18T19:30:50.225Z,102128.50
2023-04-18T19:33:17.574Z,102131.97
2023-04-18T19:35:44.389Z,102136.69
2023-04-18T19:38:11.104Z,102139.53
2023-04-18T19:40:37.939Z,102138.91
2023-04-18T19:43:04.730Z,102140.78
2023-04-18T19:45:31.999Z,102138.47
2023-04-18T19:47:58.825Z,102134.00
2023-04-18T19:50:25.568Z,102134.38
2023-04-18T19:52:52.263Z,102137.91
2023-04-18T19:55:19.028Z,102141.50
2023-04-18T19:57:46.125Z,102142.94
2023-04-18T20:00:13.501Z,102141.56
2023-04-18T20:02:41.451Z,102139.03
2023-04-18T20:05:09.493Z,102153.06
2023-04-18T20:07:36.509Z,102157.75
2023-04-18T20:10:04.532Z,102157.97
2023-04-18T20:12:31.662Z,102158.63
2023-04-18T20:14:59.085Z,102151.50
2023-04-18T20:17:26.471Z,102151.91
2023-04-18T20:19:53.601Z,102150.31
2023-04-18T20:22:20.494Z,102152.19
2023-04-18T20:24:48.903Z,102155.00
2023-04-18T20:27:15.633Z,102155.13
2023-04-18T20:29:42.434Z,102157.03
2023-04-18T20:32:11.408Z,102159.88
2023-04-18T20:34:38.182Z,102160.06
2023-04-18T20:37:07.840Z,102165.78
2023-04-18T20:39:34.492Z,102170.53
2023-04-18T20:42:04.481Z,102168.50
2023-04-18T20:44:33.586Z,102169.50
2023-04-18T20:47:00.359Z,102170.53
2023-04-18T20:49:27.026Z,102174.16
2023-04-18T20:51:53.757Z,102177.50
2023-04-18T20:54:20.498Z,102177.91
2023-04-18T20:56:47.225Z,102180.56
2023-04-18T20:59:13.905Z,102178.56
2023-04-18T21:01:41.416Z,102184.69
2023-04-18T21:04:08.370Z,102183.06
2023-04-18T21:06:35.285Z,102182.97
2023-04-18T21:09:02.147Z,102185.34
2023-04-18T21:11:28.805Z,102182.63
2023-04-18T21:13:55.546Z,102197.00
2023-04-18T21:16:24.096Z,102202.19
2023-04-18T21:18:50.846Z,102199.47
2023-04-18T21:21:17.906Z,102187.75
2023-04-18T21:23:44.727Z,102194.06
2023-04-18T21:26:13.289Z,102194.81
2023-04-18T21:28:57.605Z,102197.75
2023-04-18T21:31:25.707Z,102202.69
2023-04-18T21:33:56.860Z,102190.22
2023-04-18T21:36:24.769Z,102195.25
2023-04-18T21:38:52.776Z,102198.53
2023-04-18T21:41:20.049Z,102196.66
2023-04-18T21:43:47.239Z,102192.47
2023-04-18T21:46:14.294Z,102189.88
2023-04-18T21:48:42.519Z,102194.22
2023-04-18T21:51:10.229Z,102195.94
2023-04-18T21:53:40.532Z,102193.47
2023-04-18T21:56:08.305Z,102190.69
2023-04-18T21:58:35.449Z,102199.53
2023-04-18T22:01:02.348Z,102193.41
2023-04-18T22:03:29.750Z,102192.81
2023-04-18T22:05:57.050Z,102190.13
2023-04-18T22:08:25.941Z,102191.34
2023-04-18T22:10:57.979Z,102187.53
2023-04-18T22:13:25.860Z,102195.34
2023-04-18T22:15:52.749Z,102193.72
2023-04-18T22:18:19.636Z,102189.16
2023-04-18T22:20:47.579Z,102200.66
2023-04-18T22:23:14.631Z,102197.13
2023-04-18T22:25:41.393Z,102190.81
2023-04-18T22:28:08.131Z,102188.56
2023-04-18T22:30:34.914Z,102195.41
2023-04-18T22:33:01.753Z,102211.13
2023-04-18T22:35:28.591Z,102194.59
2023-04-18T22:37:55.852Z,102193.00
2023-04-18T22:40:22.691Z,102192.53
2023-04-18T22:42:52.030Z,102183.84
2023-04-18T22:45:19.412Z,102192.53
2023-04-18T22:47:46.878Z,102193.56
2023-04-18T22:50:14.715Z,102188.50
2023-04-18T22:52:41.643Z,102190.34
2023-04-18T22:55:09.098Z,102195.19
2023-04-18T22:57:36.235Z,102195.13
2023-04-18T23:00:05.056Z,102200.31
2023-04-18T23:02:32.250Z,102196.50
2023-04-18T23:04:59.870Z,102194.81
2023-04-18T23:07:26.530Z,102191.88
2023-04-18T23:09:53.189Z,102190.94
2023-04-18T23:12:19.964Z,102189.28
2023-04-18T23:14:48.117Z,102183.63
2023-04-18T23:17:14.794Z,102189.34
2023-04-18T23:19:41.486Z,102183.22
2023-04-18T23:22:08.199Z,102189.53
2023-04-18T23:24:34.884Z,102185.22
2023-04-18T23:27:01.911Z,102184.53
2023-04-18T23:29:28.588Z,102173.88
2023-04-18T23:31:55.452Z,102185.50
2023-04-18T23:34:22.276Z,102185.50
2023-04-18T23:36:48.947Z,102180.78
2023-04-18T23:39:17.687Z,102182.34
2023-04-18T23:41:44.378Z,102176.16
2023-04-18T23:44:11.047Z,102179.97
2023-04-18T23:46:37.738Z,102183.97
2023-04-18T23:49:04.549Z,102174.84
2023-04-18T23:51:31.381Z,102181.75
2023-04-18T23:53:58.085Z,102178.38
2023-04-18T23:56:24.791Z,102177.78
2023-04-18T23:58:51.581Z,102178.63
